Time;durP1;ratioP1;P1;durP2;ratioP2;P2;SDS_P1;SDS_P2;PMS_P1;PMS_P2;Temp;Humidity;BMP_temperature;BMP_pressure;BME280_temperature;BME280_humidity;BME280_pressure;Samples;Min_cycle;Max_cycle;Signal;HPM_P1;HPM_P2
2023/05/26 00:03:16;;;;;;;15.43;7.70;;;;;;;18.59;59.54;100035.06;7553013;33;37987;-80
2023/05/26 00:07:38;;;;;;;14.38;8.13;;;;;;;18.65;59.51;100028.28;7552775;33;39503;-79
2023/05/26 00:11:55;;;;;;;15.45;7.62;;;;;;;18.62;60.07;100034.44;7552779;33;39957;-79
2023/05/26 00:16:11;;;;;;;13.07;7.75;;;;;;;18.56;60.21;100041.25;7552360;33;38852;-80
2023/05/26 00:20:29;;;;;;;12.90;8.05;;;;;;;18.46;60.70;100044.31;7552560;33;37301;-78
2023/05/26 00:24:46;;;;;;;14.98;8.25;;;;;;;18.35;60.73;100030.78;7553085;33;39317;-79
2023/05/26 00:29:02;;;;;;;15.43;8.18;;;;;;;18.49;60.07;100043.63;7552156;33;39938;-80
2023/05/26 00:33:21;;;;;;;12.55;7.80;;;;;;;18.37;60.34;100045.06;7553489;33;37979;-80
2023/05/26 00:37:38;;;;;;;14.98;8.00;;;;;;;18.34;60.23;100034.66;7555787;33;37347;-79
2023/05/26 00:41:54;;;;;;;13.45;8.15;;;;;;;18.66;58.89;100042.91;7555885;33;39944;-79
2023/05/26 00:46:10;;;;;;;16.25;8.75;;;;;;;18.47;59.40;100049.50;7555725;33;39847;-79
2023/05/26 00:50:27;;;;;;;12.85;7.53;;;;;;;18.19;60.29;100043.34;7555685;33;37869;-79
2023/05/26 00:54:43;;;;;;;14.82;8.25;;;;;;;18.10;60.36;100045.25;7542573;33;37157;-79
2023/05/26 00:59:01;;;;;;;14.75;8.20;;;;;;;18.00;60.64;100041.63;7555510;33;39368;-79
2023/05/26 01:03:18;;;;;;;14.40;8.07;;;;;;;18.09;60.32;100038.94;7542437;33;39894;-79
2023/05/26 01:07:35;;;;;;;15.80;8.65;;;;;;;18.13;59.96;100033.59;7555368;33;37901;-79
2023/05/26 01:11:58;;;;;;;18.35;7.90;;;;;;;17.95;60.40;100032.66;7555450;33;37891;-79
2023/05/26 01:16:16;;;;;;;15.40;8.23;;;;;;;18.06;60.01;100035.97;7565741;33;40108;-79
2023/05/26 01:20:41;;;;;;;13.80;8.63;;;;;;;17.96;60.27;100029.59;7580976;33;39918;-79
2023/05/26 01:25:16;;;;;;;14.57;7.65;;;;;;;17.88;60.62;100024.84;7579100;33;37828;-79
2023/05/26 01:29:38;;;;;;;13.00;7.55;;;;;;;17.83;60.61;100042.31;7568748;33;37093;-79
2023/05/26 01:33:54;;;;;;;15.55;8.63;;;;;;;17.89;60.33;100039.47;7566862;33;38639;-78
2023/05/26 01:38:11;;;;;;;15.65;8.10;;;;;;;17.58;61.26;100035.47;7554863;33;40910;-79
2023/05/26 01:42:32;;;;;;;13.35;8.48;;;;;;;17.70;60.93;100043.19;7559595;33;37729;-78
2023/05/26 01:46:50;;;;;;;15.00;9.13;;;;;;;17.65;61.08;100030.34;7579683;33;37453;-79
2023/05/26 01:51:07;;;;;;;18.92;8.48;;;;;;;17.54;61.34;100028.97;7580679;33;39363;-78
2023/05/26 01:55:26;;;;;;;16.35;9.07;;;;;;;17.57;61.26;100028.31;7544602;33;39711;-79
2023/05/26 01:59:42;;;;;;;15.05;8.45;;;;;;;17.54;61.31;100023.47;7541997;33;38153;-78
2023/05/26 02:03:59;;;;;;;15.80;9.05;;;;;;;17.42;61.59;100028.72;7568759;33;37713;-79
2023/05/26 02:08:15;;;;;;;13.02;8.43;;;;;;;17.40;61.53;100022.69;7579137;33;40247;-79
2023/05/26 02:12:31;;;;;;;14.73;8.45;;;;;;;17.57;60.59;100025.56;7575419;33;40825;-79
2023/05/26 02:16:48;;;;;;;15.15;9.60;;;;;;;17.42;60.98;100020.44;7575284;33;38751;-78
2023/05/26 02:21:04;;;;;;;14.45;8.48;;;;;;;17.30;61.44;100017.41;7580364;33;36914;-78
2023/05/26 02:25:20;;;;;;;15.30;8.68;;;;;;;17.39;60.94;100024.63;7558400;33;39484;-79
2023/05/26 02:29:37;;;;;;;14.63;9.25;;;;;;;17.37;60.88;100017.81;7554449;33;40878;-79
2023/05/26 02:33:53;;;;;;;17.85;9.20;;;;;;;17.18;61.47;100029.81;7566797;33;38857;-79
2023/05/26 02:38:09;;;;;;;15.68;8.82;;;;;;;17.34;60.78;100024.75;7580096;33;37966;-79
2023/05/26 02:42:25;;;;;;;14.57;9.57;;;;;;;17.19;61.11;100034.16;7576371;33;40122;-79
2023/05/26 02:46:42;;;;;;;15.27;9.25;;;;;;;17.14;61.48;100031.53;7554350;33;40953;-79
2023/05/26 02:50:59;;;;;;;17.62;10.38;;;;;;;17.04;61.65;100038.09;7554177;33;37681;-79
2023/05/26 02:55:15;;;;;;;17.52;9.77;;;;;;;17.00;61.63;100034.31;7574524;33;37261;-79
2023/05/26 02:59:31;;;;;;;18.70;10.00;;;;;;;16.99;61.50;100037.37;7579954;33;39286;-79
2023/05/26 03:03:48;;;;;;;17.42;10.10;;;;;;;17.05;61.23;100038.91;7567794;33;40785;-78
2023/05/26 03:08:07;;;;;;;15.23;9.98;;;;;;;16.80;61.99;100035.56;7553932;33;38498;-79
2023/05/26 03:12:23;;;;;;;17.52;10.35;;;;;;;16.91;61.84;100043.63;7556172;33;37474;-79
2023/05/26 03:16:40;;;;;;;14.70;9.32;;;;;;;16.92;61.68;100056.25;7579643;33;39166;-79
2023/05/26 03:20:56;;;;;;;19.73;10.15;;;;;;;16.96;61.75;100049.03;7579612;33;40765;-79
2023/05/26 03:25:14;;;;;;;16.58;9.95;;;;;;;16.88;61.86;100043.13;7559511;33;38851;-79
2023/05/26 03:29:31;;;;;;;18.00;10.45;;;;;;;16.99;61.64;100045.62;7553758;33;37905;-79
2023/05/26 03:33:47;;;;;;;17.08;10.43;;;;;;;16.94;62.09;100040.28;7563912;33;39312;-79
2023/05/26 03:38:03;;;;;;;21.15;11.75;;;;;;;16.88;62.43;100045.88;7578901;33;39910;-79
2023/05/26 03:42:20;;;;;;;18.55;11.93;;;;;;;16.73;63.06;100043.41;7577810;33;37985;-79
2023/05/26 03:46:36;;;;;;;18.77;11.85;;;;;;;16.81;62.92;100039.12;7564998;33;36957;-79
2023/05/26 03:50:52;;;;;;;22.92;12.27;;;;;;;16.83;62.76;100032.19;7578710;33;40168;-78
2023/05/26 03:55:10;;;;;;;20.67;11.90;;;;;;;16.96;62.36;100041.56;7559696;33;39921;-79
2023/05/26 03:59:27;;;;;;;22.55;12.20;;;;;;;17.07;61.92;100042.16;7552943;33;38851;-79
2023/05/26 04:03:43;;;;;;;21.37;12.80;;;;;;;17.08;61.89;100046.56;7562144;33;37993;-79
2023/05/26 04:08:04;;;;;;;20.52;12.07;;;;;;;17.12;61.80;100047.56;7579533;33;40008;-79
2023/05/26 04:12:20;;;;;;;22.73;12.55;;;;;;;17.00;62.22;100056.34;7580473;33;40258;-79
2023/05/26 04:16:37;;;;;;;20.10;13.32;;;;;;;17.10;62.10;100055.31;7556006;33;38206;-79
2023/05/26 04:20:53;;;;;;;20.12;13.40;;;;;;;17.08;62.27;100061.13;7556055;33;37316;-79
2023/05/26 04:25:09;;;;;;;24.35;13.23;;;;;;;17.04;62.29;100056.53;7573761;33;39314;-79
2023/05/26 04:29:26;;;;;;;25.60;13.43;;;;;;;17.22;61.87;100061.09;7581570;33;41276;-79
2023/05/26 04:33:44;;;;;;;21.65;13.40;;;;;;;17.20;61.87;100060.59;7572356;33;38864;-79
2023/05/26 04:38:01;;;;;;;25.55;13.43;;;;;;;17.07;62.39;100058.69;7555756;33;37033;-79
2023/05/26 04:42:19;;;;;;;23.15;14.48;;;;;;;17.07;62.51;100066.94;7555681;33;40210;-77
2023/05/26 04:46:40;;;;;;;25.80;14.50;;;;;;;17.21;62.20;100076.03;7547396;33;40865;-79
2023/05/26 04:50:56;;;;;;;26.23;15.02;;;;;;;17.25;62.21;100071.50;7555584;33;37940;-79
2023/05/26 04:55:13;;;;;;;26.92;15.10;;;;;;;17.24;62.59;100075.38;7565219;33;37299;-79
2023/05/26 04:59:29;;;;;;;30.02;15.50;;;;;;;17.34;62.36;100073.53;7555475;33;39514;-79
2023/05/26 05:03:46;;;;;;;26.00;15.38;;;;;;;17.39;62.37;100070.66;7563788;33;40042;-79
2023/05/26 05:08:02;;;;;;;28.65;16.25;;;;;;;17.55;62.08;100074.69;7580964;33;38618;-79
2023/05/26 05:12:18;;;;;;;28.87;16.20;;;;;;;17.68;61.61;100077.69;7581252;33;37973;-78
2023/05/26 05:16:35;;;;;;;32.10;16.80;;;;;;;17.79;61.63;100081.84;7555576;33;38323;-79
2023/05/26 05:20:51;;;;;;;38.58;17.55;;;;;;;17.92;61.18;100075.50;7549656;33;41010;-77
2023/05/26 05:25:08;;;;;;;29.60;18.00;;;;;;;17.86;61.14;100079.50;7552972;33;38753;-70
2023/05/26 05:29:24;;;;;;;29.50;17.48;;;;;;;18.11;60.98;100077.22;7548485;33;37814;-69
2023/05/26 05:33:42;;;;;;;32.25;19.08;;;;;;;18.38;60.28;100074.31;7549163;33;40140;-74
2023/05/26 05:38:01;;;;;;;31.65;17.77;;;;;;;18.46;60.20;100075.47;7551881;33;39984;-74
2023/05/26 05:42:17;;;;;;;35.38;18.05;;;;;;;18.62;59.58;100078.63;7548603;33;37963;-74
2023/05/26 05:46:33;;;;;;;27.58;17.27;;;;;;;18.78;59.08;100081.75;7549354;33;37246;-70
2023/05/26 05:50:49;;;;;;;30.73;18.37;;;;;;;19.02;58.45;100078.59;7554280;33;40050;-72
2023/05/26 05:55:06;;;;;;;30.95;17.15;;;;;;;19.33;57.57;100080.44;7553707;33;39917;-74
2023/05/26 05:59:22;;;;;;;33.88;17.98;;;;;;;19.26;57.66;100080.13;7553944;33;38783;-70
2023/05/26 06:03:39;;;;;;;32.22;17.70;;;;;;;19.47;56.95;100083.91;7554396;33;38178;-81
2023/05/26 06:07:55;;;;;;;29.83;17.50;;;;;;;19.64;57.06;100080.28;7564183;33;39343;-77
2023/05/26 06:12:11;;;;;;;28.50;16.98;;;;;;;19.90;56.25;100082.25;7580058;33;39897;-76
2023/05/26 06:16:29;;;;;;;30.45;16.40;;;;;;;19.75;56.09;100083.59;7579880;33;37992;-76
2023/05/26 06:20:46;;;;;;;28.62;17.05;;;;;;;19.57;56.44;100090.22;7569954;33;38136;-76
2023/05/26 06:25:05;;;;;;;30.67;19.00;;;;;;;19.81;56.56;100090.56;7558279;33;39238;-79
2023/05/26 06:29:21;;;;;;;32.00;17.50;;;;;;;19.66;57.55;100099.34;7568874;33;40787;-77
2023/05/26 06:33:38;;;;;;;29.00;17.50;;;;;;;19.66;57.17;100102.09;7544759;33;38874;-79
2023/05/26 06:37:54;;;;;;;34.60;17.92;;;;;;;20.07;56.62;100103.56;7554372;33;37789;-79
2023/05/26 06:42:10;;;;;;;26.25;16.92;;;;;;;19.72;56.75;100091.72;7562736;33;40144;-80
2023/05/26 06:46:26;;;;;;;25.12;16.30;;;;;;;19.64;57.37;100099.66;7567653;33;40752;-78
2023/05/26 06:50:43;;;;;;;29.42;16.70;;;;;;;20.15;56.75;100108.28;7553707;33;37939;-78
2023/05/26 06:54:59;;;;;;;25.90;16.83;;;;;;;20.11;56.50;100101.78;7564500;33;37334;-77
2023/05/26 06:59:16;;;;;;;32.63;16.45;;;;;;;20.21;56.94;100100.59;7579086;33;39515;-78
2023/05/26 07:03:32;;;;;;;25.83;16.17;;;;;;;20.31;56.19;100102.22;7561730;33;39753;-79
2023/05/26 07:07:48;;;;;;;26.50;15.68;;;;;;;20.46;56.17;100104.47;7553362;33;38784;-79
2023/05/26 07:12:06;;;;;;;26.17;14.65;;;;;;;20.55;55.90;100102.47;7562944;33;37159;-79
2023/05/26 07:16:22;;;;;;;28.98;16.45;;;;;;;20.45;56.72;100106.44;7561102;33;39187;-71
2023/05/26 07:20:39;;;;;;;28.50;16.20;;;;;;;20.47;56.14;100099.72;7553573;33;40861;-77
2023/05/26 07:24:56;;;;;;;28.00;15.52;;;;;;;20.61;55.52;100105.84;7552561;33;37999;-78
2023/05/26 07:29:12;;;;;;;25.25;15.02;;;;;;;20.34;56.64;100110.69;7552546;33;37246;-78
2023/05/26 07:33:28;;;;;;;25.45;15.63;;;;;;;20.91;55.20;100100.41;7539250;33;39409;-79
2023/05/26 07:37:45;;;;;;;20.52;13.32;;;;;;;20.77;55.34;100103.41;7553067;33;38716;-77
2023/05/26 07:42:01;;;;;;;25.75;14.05;;;;;;;21.35;54.77;100104.53;7555296;33;38490;-77
2023/05/26 07:46:17;;;;;;;21.58;14.00;;;;;;;21.00;54.56;100107.50;7567873;33;37955;-77
2023/05/26 07:50:34;;;;;;;21.02;13.18;;;;;;;21.30;53.96;100109.44;7521452;33;39924;-78
2023/05/26 07:54:50;;;;;;;24.45;13.27;;;;;;;21.62;54.58;100107.12;7552534;33;39869;-77
2023/05/26 07:59:07;;;;;;;22.67;14.15;;;;;;;21.64;53.41;100102.88;7560896;33;37915;-77
2023/05/26 08:03:23;;;;;;;25.65;12.75;;;;;;;21.30;53.74;100109.44;7540121;33;37180;-77
2023/05/26 08:07:39;;;;;;;20.95;12.80;;;;;;;21.70;52.84;100106.25;7536967;33;39257;-76
2023/05/26 08:11:56;;;;;;;22.25;13.23;;;;;;;21.98;53.28;100106.50;7537694;33;40806;-76
2023/05/26 08:16:12;;;;;;;19.87;12.55;;;;;;;22.00;53.48;100114.50;7538926;33;37432;-76
2023/05/26 08:20:28;;;;;;;27.45;11.93;;;;;;;22.25;52.73;100104.25;7538387;33;36944;-78
2023/05/26 08:24:44;;;;;;;19.75;11.38;;;;;;;22.39;53.04;100104.81;7538452;33;39326;-78
2023/05/26 08:29:01;;;;;;;20.65;11.57;;;;;;;22.54;51.99;100106.09;7541315;33;40967;-76
2023/05/26 08:33:17;;;;;;;16.30;10.15;;;;;;;22.74;50.97;100103.56;7545894;33;39028;-75
2023/05/26 08:37:34;;;;;;;21.02;9.90;;;;;;;23.01;50.86;100096.53;7536898;33;37206;-75
2023/05/26 08:42:00;;;;;;;16.15;9.90;;;;;;;23.28;49.84;100094.19;7538049;33;39870;-75
2023/05/26 08:46:17;;;;;;;16.95;9.32;;;;;;;23.29;48.76;100095.81;7527247;33;40752;-75
2023/05/26 08:50:34;;;;;;;14.18;8.88;;;;;;;23.85;49.30;100089.53;7541642;33;37923;-75
2023/05/26 08:54:50;;;;;;;17.92;9.50;;;;;;;23.75;47.72;100090.81;7543814;33;38048;-74
2023/05/26 08:59:08;;;;;;;20.50;9.50;;;;;;;23.68;49.40;100090.59;7531711;33;39395;-75
2023/05/26 09:03:26;;;;;;;17.17;9.45;;;;;;;23.40;49.02;100085.81;7548399;33;40147;-75
2023/05/26 09:07:42;;;;;;;15.98;9.23;;;;;;;23.76;48.50;100078.53;7562997;33;38722;-75
2023/05/26 09:11:58;;;;;;;13.07;8.63;;;;;;;23.72;49.73;100085.97;7580581;33;37672;-75
2023/05/26 09:16:15;;;;;;;13.15;8.65;;;;;;;23.62;47.11;100079.72;7574012;33;39446;-77
2023/05/26 09:20:51;;;;;;;14.57;8.20;;;;;;;23.92;46.01;100078.59;7559521;33;41453;-75
2023/05/26 09:25:09;;;;;;;13.45;7.32;;;;;;;23.89;45.50;100070.97;7550898;33;37736;-75
2023/05/26 09:29:25;;;;;;;14.55;7.15;;;;;;;23.89;44.10;100074.56;7569434;33;37046;-76
2023/05/26 09:33:46;;;;;;;13.40;7.30;;;;;;;24.47;42.79;100073.28;7556512;33;39466;-75
2023/05/26 09:38:04;;;;;;;14.05;6.47;;;;;;;24.21;43.31;100071.03;7552453;33;40971;-75
2023/05/26 09:42:21;;;;;;;13.02;6.53;;;;;;;24.11;41.55;100070.41;7554879;33;38176;-75
2023/05/26 09:46:39;;;;;;;10.38;6.35;;;;;;;24.16;41.02;100072.09;7549683;33;36957;-76
2023/05/26 09:50:55;;;;;;;10.68;6.68;;;;;;;24.47;39.85;100067.72;7551240;33;39576;-76
2023/05/26 09:55:11;;;;;;;11.98;6.32;;;;;;;24.77;39.69;100072.84;7553014;33;40749;-76
2023/05/26 09:59:38;;;;;;;11.55;6.18;;;;;;;25.13;38.80;100074.53;7552646;33;39354;-75
2023/05/26 10:03:54;;;;;;;19.52;7.80;;;;;;;24.47;38.81;100070.50;7563545;33;38005;-75
2023/05/26 10:08:11;;;;;;;15.70;8.27;;;;;;;24.45;43.33;100067.28;7541149;33;39363;-75
2023/05/26 10:12:32;;;;;;;17.25;10.00;;;;;;;24.47;43.25;100064.94;7553553;33;40787;-75
2023/05/26 10:16:49;;;;;;;18.00;9.52;;;;;;;24.37;46.16;100066.28;7540420;33;37950;-75
2023/05/26 10:21:09;;;;;;;19.85;9.27;;;;;;;24.42;47.46;100056.84;7552310;33;37436;-76
2023/05/26 10:25:45;;;;;;;13.62;8.55;;;;;;;25.15;46.72;100061.03;7551186;33;39269;-75
2023/05/26 10:30:08;;;;;;;21.08;7.57;;;;;;;24.78;46.17;100063.34;7558737;33;40012;-74
2023/05/26 10:34:38;;;;;;;13.95;8.60;;;;;;;25.56;42.74;100053.16;7550218;33;37317;-76
2023/05/26 10:38:58;;;;;;;13.95;7.97;;;;;;;25.27;43.75;100054.53;7522773;33;37927;-74
2023/05/26 10:43:22;;;;;;;15.40;8.02;;;;;;;25.60;44.20;100058.81;7528400;33;39902;-75
2023/05/26 10:47:46;;;;;;;15.43;8.23;;;;;;;25.79;42.76;100053.22;7527483;33;40103;-76
2023/05/26 10:52:13;;;;;;;14.27;7.37;;;;;;;25.49;43.10;100050.19;7534131;33;38748;-75
2023/05/26 10:56:42;;;;;;;12.82;7.20;;;;;;;25.99;40.11;100047.63;7533647;33;37748;-74
2023/05/26 11:01:14;;;;;;;14.87;7.07;;;;;;;25.85;43.46;100048.13;7534131;33;39462;-75
2023/05/26 11:05:31;;;;;;;12.57;7.20;;;;;;;26.53;39.83;100038.22;7540213;33;40647;-71
2023/05/26 11:10:01;;;;;;;11.88;7.43;;;;;;;26.34;42.17;100046.69;7526094;33;38811;-75
2023/05/26 11:14:29;;;;;;;12.20;7.10;;;;;;;26.46;39.69;100038.09;7536165;33;37351;-75
2023/05/26 11:19:05;;;;;;;17.27;7.90;;;;;;;25.97;42.11;100034.03;7551910;33;39372;-81
2023/05/26 11:23:22;;;;;;;14.52;7.40;;;;;;;27.00;42.51;100027.78;7537401;33;40918;-69
2023/05/26 11:27:46;;;;;;;16.50;7.07;;;;;;;26.94;39.73;100023.69;7527719;33;37781;-76
2023/05/26 11:32:02;;;;;;;12.30;7.60;;;;;;;27.17;40.62;100016.03;7528663;33;36894;-76
2023/05/26 11:36:20;;;;;;;11.70;6.82;;;;;;;27.26;38.05;100018.53;7529762;33;40327;-75
2023/05/26 11:40:36;;;;;;;12.02;7.20;;;;;;;26.80;39.24;100018.69;7555428;33;40815;-77
2023/05/26 11:44:55;;;;;;;11.95;6.90;;;;;;;27.37;39.24;100007.50;7552761;33;37668;-78
2023/05/26 11:49:14;;;;;;;10.48;6.60;;;;;;;28.24;40.67;100001.66;7549556;33;37044;-77
2023/05/26 11:53:31;;;;;;;11.20;6.43;;;;;;;28.68;37.75;100000.00;7541104;33;39324;-76
2023/05/26 11:57:50;;;;;;;10.65;6.12;;;;;;;27.99;36.57;99992.22;7549530;33;40777;-76
2023/05/26 12:02:07;;;;;;;14.02;6.32;;;;;;;27.97;36.67;99978.59;7531327;33;37983;-77
2023/05/26 12:06:25;;;;;;;14.57;7.30;;;;;;;28.96;37.38;99976.13;7545267;33;37216;-77
2023/05/26 12:10:43;;;;;;;13.48;6.82;;;;;;;28.06;37.16;99976.28;7551989;33;39337;-77
2023/05/26 12:15:07;;;;;;;13.27;7.30;;;;;;;28.23;36.60;99971.22;7551961;33;40895;-77
2023/05/26 12:19:26;;;;;;;11.88;6.85;;;;;;;29.28;35.37;99956.69;7551287;33;38814;-77
2023/05/26 12:23:42;;;;;;;10.23;6.57;;;;;;;28.69;35.52;99961.56;7551306;33;37095;-76
2023/05/26 12:27:59;;;;;;;10.27;6.90;;;;;;;29.26;34.51;99952.66;7551833;33;39344;-78
2023/05/26 12:32:15;;;;;;;14.52;6.75;;;;;;;29.15;36.45;99956.19;7555567;33;40032;-78
2023/05/26 12:36:32;;;;;;;11.05;6.45;;;;;;;29.25;37.22;99951.03;7555486;33;38000;-77
2023/05/26 12:40:49;;;;;;;9.50;6.50;;;;;;;28.76;35.80;99945.59;7542048;33;37028;-77
2023/05/26 12:45:06;;;;;;;10.95;7.00;;;;;;;28.40;36.66;99945.31;7555543;33;39315;-77
2023/05/26 12:49:23;;;;;;;10.10;6.60;;;;;;;28.68;36.28;99949.53;7555068;33;40786;-78
2023/05/26 12:53:39;;;;;;;12.95;7.20;;;;;;;28.30;36.41;99940.44;7555110;33;37992;-77
2023/05/26 12:57:55;;;;;;;10.20;6.72;;;;;;;28.01;38.61;99931.81;7555559;33;37195;-77
2023/05/26 13:02:12;;;;;;;11.95;6.70;;;;;;;28.75;36.25;99927.16;7542090;33;39359;-77
2023/05/26 13:06:29;;;;;;;11.88;6.75;;;;;;;28.63;35.78;99930.28;7540727;33;40548;-77
2023/05/26 13:10:45;;;;;;;14.90;6.45;;;;;;;28.39;37.33;99926.06;7529071;33;37985;-78
2023/05/26 13:15:03;;;;;;;11.07;7.07;;;;;;;28.90;37.06;99916.00;7529652;33;37996;-77
2023/05/26 13:19:20;;;;;;;10.45;6.68;;;;;;;28.89;36.14;99920.00;7528241;33;39370;-77
2023/05/26 13:23:36;;;;;;;12.82;6.57;;;;;;;28.80;36.95;99911.94;7529496;33;40685;-77
2023/05/26 13:27:52;;;;;;;10.50;6.78;;;;;;;28.29;36.64;99910.81;7529453;33;37930;-77
2023/05/26 13:32:09;;;;;;;11.40;6.40;;;;;;;28.65;37.43;99900.66;7528988;33;37324;-77
2023/05/26 13:36:25;;;;;;;9.90;6.10;;;;;;;29.33;36.76;99904.97;7534107;33;40099;-78
2023/05/26 13:40:42;;;;;;;11.07;5.80;;;;;;;29.56;34.75;99899.81;7551313;33;41350;-77
2023/05/26 13:44:59;;;;;;;10.85;5.60;;;;;;;30.22;35.42;99898.66;7544976;33;38023;-78
2023/05/26 13:49:15;;;;;;;12.52;5.62;;;;;;;29.57;34.84;99909.03;7553634;33;37991;-78
2023/05/26 13:53:33;;;;;;;14.32;6.62;;;;;;;30.18;35.82;99897.84;7554180;33;39373;-78
2023/05/26 13:57:49;;;;;;;12.75;6.15;;;;;;;30.35;35.31;99899.06;7554261;33;40548;-82
2023/05/26 14:02:06;;;;;;;9.77;5.22;;;;;;;30.90;32.18;99898.47;7554894;33;38756;-75
2023/05/26 14:06:23;;;;;;;10.70;5.53;;;;;;;30.85;32.49;99892.47;7554941;33;37109;-75
2023/05/26 14:10:39;;;;;;;8.48;5.15;;;;;;;31.02;29.51;99888.03;7536858;33;39375;-76
2023/05/26 14:14:56;;;;;;;10.57;5.12;;;;;;;31.15;29.10;99891.16;7529303;33;39912;-75
2023/05/26 14:19:14;;;;;;;8.82;4.68;;;;;;;30.95;28.17;99883.22;7529137;33;37965;-76
2023/05/26 14:23:31;;;;;;;10.65;4.82;;;;;;;31.10;29.06;99880.34;7529222;33;37863;-76
2023/05/26 14:27:48;;;;;;;9.77;4.72;;;;;;;31.29;28.80;99885.47;7529215;33;40036;-76
2023/05/26 14:32:04;;;;;;;9.23;5.25;;;;;;;31.59;30.78;99876.44;7529033;33;39717;-76
2023/05/26 14:36:21;;;;;;;9.60;4.72;;;;;;;31.90;27.58;99875.81;7549545;33;38789;-75
2023/05/26 14:40:37;;;;;;;19.20;5.00;;;;;;;30.79;28.40;99863.97;7554543;33;38163;-75
2023/05/26 14:44:53;;;;;;;11.05;5.20;;;;;;;31.49;29.51;99862.41;7553174;33;40111;-75
2023/05/26 14:49:10;;;;;;;8.88;4.75;;;;;;;31.70;28.33;99864.28;7536200;33;41383;-74
2023/05/26 14:53:27;;;;;;;9.05;4.47;;;;;;;32.10;28.79;99864.78;7537012;33;37703;-75
2023/05/26 14:57:43;;;;;;;9.93;4.30;;;;;;;31.70;27.70;99853.84;7537269;33;37102;-75
2023/05/26 15:01:59;;;;;;;8.50;5.05;;;;;;;31.39;29.47;99861.25;7546112;33;39304;-75
2023/05/26 15:06:16;;;;;;;7.72;4.72;;;;;;;31.53;29.77;99849.13;7553976;33;40869;-75
2023/05/26 15:10:33;;;;;;;8.20;4.82;;;;;;;31.61;28.91;99850.69;7551656;33;38616;-75
2023/05/26 15:14:51;;;;;;;9.40;4.65;;;;;;;31.34;29.04;99851.25;7550896;33;38746;-75
2023/05/26 15:19:07;;;;;;;8.13;4.55;;;;;;;30.63;29.17;99846.75;7551699;33;40161;-75
2023/05/26 15:23:23;;;;;;;9.82;4.53;;;;;;;29.73;30.32;99850.44;7552389;33;39929;-75
2023/05/26 15:27:39;;;;;;;15.98;4.65;;;;;;;30.45;31.87;99849.63;7553768;33;37904;-75
2023/05/26 15:31:56;;;;;;;12.77;5.15;;;;;;;30.67;31.97;99853.19;7553549;33;37207;-75
2023/05/26 15:36:22;;;;;;;7.30;4.28;;;;;;;30.61;33.59;99851.97;7553595;33;40063;-75
2023/05/26 15:40:38;;;;;;;13.48;5.25;;;;;;;30.42;33.62;99847.63;7553695;33;40780;-75
2023/05/26 15:44:55;;;;;;;9.52;4.55;;;;;;;30.97;32.69;99847.03;7553618;33;38730;-75
2023/05/26 15:49:12;;;;;;;11.57;4.95;;;;;;;30.99;31.36;99844.59;7552684;33;37332;-75
2023/05/26 15:53:28;;;;;;;9.30;4.75;;;;;;;30.80;31.05;99851.50;7553222;33;39913;-75
2023/05/26 15:57:44;;;;;;;9.00;4.80;;;;;;;30.90;31.65;99849.84;7553227;33;39924;-75
2023/05/26 16:02:01;;;;;;;8.27;4.40;;;;;;;30.84;32.26;99855.09;7553175;33;37976;-75
2023/05/26 16:06:17;;;;;;;14.50;5.40;;;;;;;30.39;32.68;99868.09;7555717;33;38065;-75
2023/05/26 16:10:34;;;;;;;8.45;4.72;;;;;;;30.44;31.09;99860.09;7556217;33;40048;-75
2023/05/26 16:14:50;;;;;;;14.65;5.18;;;;;;;30.31;30.21;99859.66;7556353;33;39707;-75
2023/05/26 16:19:06;;;;;;;8.13;4.62;;;;;;;30.48;31.80;99865.69;7556071;33;38121;-75
2023/05/26 16:23:23;;;;;;;8.63;4.45;;;;;;;30.63;30.55;99867.25;7556155;33;37758;-75
2023/05/26 16:27:39;;;;;;;11.80;4.72;;;;;;;30.03;31.60;99873.75;7556072;33;39445;-75
2023/05/26 16:31:55;;;;;;;8.00;4.57;;;;;;;30.37;31.47;99870.53;7555911;33;40138;-75
2023/05/26 16:36:12;;;;;;;9.68;4.12;;;;;;;29.87;32.19;99871.34;7555756;33;38759;-75
2023/05/26 16:40:28;;;;;;;7.95;4.18;;;;;;;29.54;31.29;99878.94;7556021;33;36849;-75
2023/05/26 16:44:44;;;;;;;8.13;4.22;;;;;;;29.53;31.53;99875.31;7555828;33;39918;-75
2023/05/26 16:49:00;;;;;;;10.40;4.00;;;;;;;29.32;31.74;99875.25;7555880;33;40807;-75
2023/05/26 16:53:17;;;;;;;6.75;3.85;;;;;;;29.24;31.16;99868.06;7555854;33;37879;-75
2023/05/26 16:57:33;;;;;;;12.18;3.90;;;;;;;29.29;32.18;99876.09;7555810;33;37860;-75
2023/05/26 17:01:50;;;;;;;7.93;3.53;;;;;;;29.25;32.63;99876.06;7555683;33;40122;-75
2023/05/26 17:06:06;;;;;;;6.32;3.90;;;;;;;29.18;32.58;99878.84;7555691;33;39736;-75
2023/05/26 17:10:23;;;;;;;5.15;3.28;;;;;;;29.10;31.43;99885.63;7555560;33;38742;-75
2023/05/26 17:14:39;;;;;;;7.12;3.70;;;;;;;29.00;32.28;99892.78;7555442;33;38069;-75
2023/05/26 17:18:55;;;;;;;8.20;3.83;;;;;;;28.83;32.64;99897.94;7555506;33;39486;-75
2023/05/26 17:23:12;;;;;;;7.75;4.15;;;;;;;28.74;33.09;99894.69;7555429;33;40775;-75
2023/05/26 17:27:28;;;;;;;7.22;3.90;;;;;;;28.69;33.30;99900.66;7555326;33;37956;-75
2023/05/26 17:31:44;;;;;;;12.40;3.80;;;;;;;28.44;34.51;99906.91;7555379;33;37100;-75
2023/05/26 17:36:00;;;;;;;11.35;4.32;;;;;;;28.35;34.26;99909.22;7555122;33;39311;-75
2023/05/26 17:40:17;;;;;;;7.45;4.12;;;;;;;28.27;34.00;99908.41;7555260;33;39913;-75
2023/05/26 17:44:35;;;;;;;9.38;4.50;;;;;;;27.79;35.61;99915.97;7555120;33;37989;-75
2023/05/26 17:48:51;;;;;;;10.45;5.80;;;;;;;27.46;35.71;99917.66;7555058;33;37935;-75
2023/05/26 17:53:08;;;;;;;12.30;7.40;;;;;;;27.12;36.24;99929.62;7557438;33;40139;-76
2023/05/26 17:57:24;;;;;;;12.37;7.28;;;;;;;26.95;36.43;99931.00;7568763;33;39794;-76
2023/05/26 18:01:40;;;;;;;8.25;4.60;;;;;;;26.56;37.04;99944.41;7554970;33;38477;-76
2023/05/26 18:05:57;;;;;;;9.27;4.87;;;;;;;26.65;36.83;99939.37;7556286;33;37159;-76
2023/05/26 18:10:13;;;;;;;8.02;4.10;;;;;;;26.21;37.72;99945.47;7554754;33;39531;-76
2023/05/26 18:14:30;;;;;;;7.30;4.12;;;;;;;26.05;38.42;99945.59;7554745;33;40759;-76
2023/05/26 18:18:46;;;;;;;7.05;4.45;;;;;;;25.83;38.30;99950.78;7546936;33;37649;-75
2023/05/26 18:23:03;;;;;;;9.13;4.07;;;;;;;25.43;39.93;99948.44;7537732;33;37002;-76
2023/05/26 18:27:20;;;;;;;7.60;3.97;;;;;;;25.28;40.57;99959.31;7544495;33;39477;-75
2023/05/26 18:31:36;;;;;;;9.55;3.75;;;;;;;25.25;41.11;99953.59;7539177;33;39641;-75
2023/05/26 18:35:55;;;;;;;8.75;4.30;;;;;;;24.83;42.22;99959.91;7536460;33;37958;-76
2023/05/26 18:40:12;;;;;;;8.10;4.20;;;;;;;24.69;41.97;99966.75;7538523;33;37151;-75
2023/05/26 18:44:28;;;;;;;9.38;4.40;;;;;;;24.44;42.45;99973.69;7538940;33;39439;-75
2023/05/26 18:48:45;;;;;;;5.60;3.80;;;;;;;24.28;42.43;99974.50;7536914;33;40543;-75
2023/05/26 18:53:02;;;;;;;7.47;4.32;;;;;;;24.16;42.78;99977.41;7536639;33;38498;-75
2023/05/26 18:57:18;;;;;;;8.57;4.78;;;;;;;24.25;42.62;99991.13;7550284;33;37043;-76
2023/05/26 19:01:34;;;;;;;7.78;4.72;;;;;;;24.00;43.12;100000.47;7561461;33;39425;-76
2023/05/26 19:05:51;;;;;;;9.18;4.70;;;;;;;23.88;43.80;100011.69;7556067;33;40033;-76
2023/05/26 19:10:08;;;;;;;9.00;4.57;;;;;;;23.74;44.07;100011.28;7554638;33;38277;-75
2023/05/26 19:14:25;;;;;;;9.50;5.28;;;;;;;23.46;45.08;100014.88;7553945;33;37839;-79
2023/05/26 19:18:41;;;;;;;10.65;4.95;;;;;;;23.38;45.46;100010.25;7553959;33;39410;-77
2023/05/26 19:22:57;;;;;;;8.65;4.60;;;;;;;23.27;45.69;100018.28;7553907;33;40012;-76
2023/05/26 19:27:14;;;;;;;7.97;4.68;;;;;;;23.25;46.01;100021.44;7553789;33;38005;-76
2023/05/26 19:31:31;;;;;;;10.73;4.80;;;;;;;23.01;47.03;100021.47;7553719;33;37141;-76
2023/05/26 19:35:47;;;;;;;8.75;4.45;;;;;;;22.98;46.82;100024.94;7553637;33;39470;-75
2023/05/26 19:40:05;;;;;;;8.18;4.95;;;;;;;22.87;46.98;100030.97;7559037;33;39912;-74
2023/05/26 19:44:23;;;;;;;9.13;5.22;;;;;;;22.71;47.49;100032.81;7553215;33;37007;-75
2023/05/26 19:48:39;;;;;;;9.27;5.35;;;;;;;22.63;47.94;100034.56;7555770;33;37097;-75